Search for airport 
image banner adimage banner adimage banner ad
image banner ad

IA21 - Schurr Airport

Located in Leclaire, United States

ICAO - IA21, IATA -

Data provided by Airmate  

General information

Coordinates: N41°57'24" W94°5'13"
Elevation is 989 feet MSL.
 
View others Airports in Iowa

Operational data

Special qualification required
Current time UTC:
Current local time:
Weather at : KPRO - Perry Muni ( 16 km )
METAR: KPRO 181815Z AUTO 34003KT 10SM CLR 28/16 A2989 RMK AO2 T02770160
View NOTAMs / SUP AIP / TFR affecting this airport [VIEW]
Communications frequencies: [VIEW]

Runways:

RWY identifierQFULength (ft)Width (ft)SurfaceLDA (ft)
18200050GRASS
36200050GRASS

Airport contact information

Address: Leclaire United States

Satellite view of IA21